createdAt,value
2023-05-19T07:31:24.884Z,4.03
2023-05-19T07:33:54.361Z,3.50
2023-05-19T07:36:21.737Z,3.63
2023-05-19T07:38:48.819Z,3.20
2023-05-19T07:41:16.713Z,3.13
2023-05-19T07:43:43.695Z,3.25
2023-05-19T07:46:10.719Z,4.18
2023-05-19T07:48:37.663Z,3.30
2023-05-19T07:51:04.755Z,3.50
2023-05-19T07:53:31.725Z,3.30
2023-05-19T07:55:58.946Z,3.47
2023-05-19T07:58:27.169Z,3.65
2023-05-19T08:00:56.716Z,3.75
2023-05-19T08:03:23.983Z,3.63
2023-05-19T08:05:51.150Z,3.45
2023-05-19T08:08:19.688Z,3.55
2023-05-19T08:10:46.862Z,3.45
2023-05-19T08:13:13.865Z,3.38
2023-05-19T08:15:41.386Z,3.05
2023-05-19T08:18:08.682Z,3.22
2023-05-19T08:20:35.863Z,3.20
2023-05-19T08:23:03.116Z,2.80
2023-05-19T08:25:30.135Z,2.80
2023-05-19T08:27:57.093Z,2.72
2023-05-19T08:30:24.332Z,3.08
2023-05-19T08:32:51.900Z,2.60
2023-05-19T08:35:18.915Z,2.80
2023-05-19T08:37:46.031Z,2.90
2023-05-19T08:40:18.392Z,2.72
2023-05-19T08:42:46.008Z,2.40
2023-05-19T08:45:13.695Z,2.30
2023-05-19T08:47:47.134Z,3.05
2023-05-19T08:50:21.359Z,2.95
2023-05-19T08:52:53.752Z,2.53
2023-05-19T08:55:41.157Z,2.95
2023-05-19T08:58:09.850Z,2.80
2023-05-19T09:00:37.441Z,2.72
2023-05-19T09:03:17.724Z,2.92
2023-05-19T09:05:46.562Z,2.85
2023-05-19T09:08:13.874Z,2.38
2023-05-19T09:10:40.990Z,2.72
2023-05-19T09:13:08.131Z,2.50
2023-05-19T09:15:36.805Z,2.28
2023-05-19T09:48:30.878Z,2.72
2023-05-19T09:50:58.277Z,2.78
2023-05-19T09:53:25.601Z,2.90
2023-05-19T09:55:59.474Z,2.97
2023-05-19T09:58:27.107Z,3.10
2023-05-19T10:00:54.894Z,3.40
2023-05-19T10:03:26.366Z,3.78
2023-05-19T10:05:54.793Z,3.13
2023-05-19T10:08:24.515Z,3.70
2023-05-19T10:10:51.660Z,3.20
2023-05-19T10:13:19.562Z,3.50
2023-05-19T10:15:57.959Z,3.50
2023-05-19T10:18:27.521Z,3.10
2023-05-19T10:20:54.821Z,2.92
2023-05-19T10:23:22.534Z,3.55
2023-05-19T10:25:52.484Z,3.08
2023-05-19T10:28:23.631Z,2.72
2023-05-19T10:30:54.291Z,2.90
2023-05-19T10:33:28.923Z,3.38
2023-05-19T10:36:18.344Z,3.05
2023-05-19T10:39:05.564Z,3.13
2023-05-19T10:42:01.166Z,3.60
2023-05-19T10:45:05.552Z,2.72
2023-05-19T10:47:36.150Z,3.22
2023-05-19T10:50:06.687Z,3.75
2023-05-19T10:52:37.778Z,3.22
2023-05-19T10:55:08.729Z,3.50
2023-05-19T10:57:36.796Z,3.00
2023-05-19T11:00:25.624Z,3.65
2023-05-19T11:02:56.474Z,3.65
2023-05-19T11:05:30.153Z,3.08
2023-05-19T11:08:05.785Z,4.00
2023-05-19T11:10:32.960Z,3.58
2023-05-19T11:13:00.578Z,3.92
2023-05-19T11:15:28.516Z,3.90
2023-05-19T11:38:19.149Z,4.32
2023-05-19T11:40:48.163Z,4.90
2023-05-19T11:43:16.248Z,4.72
2023-05-19T11:45:43.348Z,4.95
2023-05-19T11:48:13.449Z,4.70
2023-05-19T11:50:44.234Z,5.90
2023-05-19T11:53:15.198Z,4.68
2023-05-19T11:55:44.589Z,5.40
2023-05-19T11:58:11.601Z,5.07
2023-05-19T12:00:41.267Z,4.82
2023-05-19T12:03:09.423Z,5.18
2023-05-19T12:05:45.479Z,5.00
2023-05-19T12:08:13.167Z,5.13
2023-05-19T12:10:41.020Z,4.82
2023-05-19T12:13:11.337Z,4.45
2023-05-19T12:15:39.034Z,5.15
2023-05-19T12:18:06.822Z,5.20
2023-05-19T12:20:36.144Z,4.75
2023-05-19T12:23:04.256Z,4.95
2023-05-19T12:25:32.255Z,4.70
2023-05-19T12:28:02.826Z,4.95
2023-05-19T12:30:31.586Z,5.25
2023-05-19T12:32:58.908Z,5.50
2023-05-19T12:35:37.771Z,5.10
2023-05-19T12:38:07.791Z,5.10
2023-05-19T12:40:36.217Z,6.00
2023-05-19T12:43:04.049Z,5.75
2023-05-19T12:45:39.860Z,5.70
2023-05-19T12:48:12.282Z,5.47
2023-05-19T12:50:39.719Z,5.35
2023-05-19T12:53:10.644Z,5.93
2023-05-19T12:55:43.022Z,6.75
2023-05-19T12:58:11.625Z,6.03
2023-05-19T13:00:43.752Z,6.43
2023-05-19T13:03:22.214Z,6.10
2023-05-19T13:05:51.291Z,6.72
2023-05-19T13:08:20.642Z,6.10
2023-05-19T13:10:49.229Z,6.63
2023-05-19T13:13:17.149Z,5.82
2023-05-19T13:15:45.788Z,7.53
2023-05-19T13:18:13.812Z,7.00
2023-05-19T13:20:42.632Z,6.07
2023-05-19T13:23:14.038Z,6.63
2023-05-19T13:25:42.108Z,6.47
2023-05-19T13:28:09.372Z,7.38
2023-05-19T13:30:38.639Z,6.90
2023-05-19T13:33:06.261Z,6.18
2023-05-19T13:35:39.532Z,6.72
2023-05-19T13:38:07.923Z,6.65
2023-05-19T13:40:35.473Z,6.80
2023-05-19T13:43:04.136Z,7.15
2023-05-19T13:45:31.476Z,7.47
2023-05-19T13:47:58.541Z,6.95
2023-05-19T13:50:25.980Z,7.20
2023-05-19T13:52:53.835Z,6.97
2023-05-19T13:55:21.074Z,7.43
2023-05-19T13:57:48.886Z,7.28
2023-05-19T14:00:17.650Z,6.40
2023-05-19T14:02:44.818Z,7.72
2023-05-19T14:05:11.878Z,6.82
2023-05-19T14:07:38.909Z,6.63
2023-05-19T14:10:06.945Z,6.75
2023-05-19T14:12:46.993Z,6.05
2023-05-19T14:15:22.749Z,6.65
2023-05-19T14:17:49.776Z,6.85
2023-05-19T14:20:16.806Z,8.13
2023-05-19T14:22:43.796Z,7.90
2023-05-19T14:25:11.018Z,7.78
2023-05-19T14:27:39.967Z,7.13
2023-05-19T14:30:08.151Z,7.60
2023-05-19T14:32:35.343Z,6.80
2023-05-19T14:35:02.642Z,6.65
2023-05-19T14:37:31.734Z,5.95
2023-05-19T14:39:59.261Z,6.13
2023-05-19T14:42:26.288Z,6.00
2023-05-19T14:44:53.330Z,5.50
2023-05-19T14:47:20.298Z,4.72
2023-05-19T14:49:47.427Z,6.43
2023-05-19T14:52:14.397Z,6.55
2023-05-19T14:54:41.332Z,5.75
2023-05-19T14:57:08.342Z,6.40
2023-05-19T14:59:38.676Z,6.38
2023-05-19T15:02:06.114Z,5.97
2023-05-19T15:04:33.097Z,6.70
2023-05-19T15:09:29.886Z,6.20
2023-05-19T15:11:58.800Z,6.32
2023-05-19T15:14:27.136Z,7.22
2023-05-19T15:16:54.886Z,6.20
2023-05-19T15:19:22.036Z,6.85
2023-05-19T15:21:50.630Z,7.00
2023-05-19T15:24:17.668Z,6.22
2023-05-19T15:26:45.339Z,6.35
2023-05-19T15:29:12.330Z,6.13
2023-05-19T15:31:39.362Z,6.43
2023-05-19T15:34:06.456Z,6.63
2023-05-19T15:36:33.405Z,6.68
2023-05-19T15:39:00.422Z,6.18
2023-05-19T15:41:27.438Z,5.93
2023-05-19T15:43:54.454Z,6.20
2023-05-19T15:46:21.568Z,6.18
2023-05-19T15:48:48.596Z,6.82
2023-05-19T15:51:15.940Z,6.22
2023-05-19T15:53:42.986Z,6.60
2023-05-19T15:56:10.120Z,6.25
2023-05-19T15:58:37.112Z,7.07
2023-05-19T16:01:04.253Z,5.80
2023-05-19T16:03:32.330Z,7.30
2023-05-19T16:05:59.551Z,7.10
2023-05-19T16:08:27.032Z,7.43
2023-05-19T16:10:55.184Z,7.38
2023-05-19T16:13:22.470Z,7.05
2023-05-19T16:15:49.511Z,6.57
2023-05-19T16:18:16.711Z,6.32
2023-05-19T16:20:44.199Z,5.25
2023-05-19T16:23:11.206Z,6.35
2023-05-19T16:25:38.248Z,6.30
2023-05-19T16:28:05.705Z,5.85
2023-05-19T16:30:32.969Z,6.75
2023-05-19T16:33:00.197Z,5.80
2023-05-19T16:35:30.218Z,6.47
2023-05-19T16:37:57.196Z,7.10
2023-05-19T16:40:24.323Z,6.40
2023-05-19T16:42:53.413Z,6.82
2023-05-19T16:45:20.512Z,6.03
2023-05-19T16:47:47.590Z,6.30
2023-05-19T16:50:14.716Z,6.50
2023-05-19T16:52:41.697Z,7.55
2023-05-19T16:55:09.065Z,6.75
2023-05-19T16:57:35.996Z,7.47
2023-05-19T17:00:03.719Z,7.10
2023-05-19T17:02:30.976Z,7.45
2023-05-19T17:04:58.019Z,7.45
2023-05-19T17:07:25.065Z,8.23
2023-05-19T17:09:53.948Z,8.30
2023-05-19T17:12:22.918Z,17.13
2023-05-19T17:14:52.079Z,9.15
2023-05-19T17:17:19.206Z,11.15
2023-05-19T17:19:46.820Z,8.68
2023-05-19T17:22:13.902Z,9.48
2023-05-19T17:24:42.421Z,9.77
2023-05-19T17:27:09.349Z,9.18
2023-05-19T17:29:36.879Z,9.75
2023-05-19T17:32:04.464Z,8.50
2023-05-19T17:34:31.460Z,8.60
2023-05-19T17:36:58.412Z,9.15
2023-05-19T17:39:25.599Z,7.60
2023-05-19T17:41:52.590Z,8.32
2023-05-19T17:44:20.427Z,10.23
2023-05-19T17:46:47.464Z,7.35
2023-05-19T17:49:15.312Z,7.38
2023-05-19T17:51:42.625Z,11.25
2023-05-19T17:54:09.710Z,11.43
2023-05-19T17:56:42.480Z,11.25
2023-05-19T17:59:09.777Z,11.90
2023-05-19T18:01:37.114Z,8.75
2023-05-19T18:04:04.498Z,6.93
2023-05-19T18:06:32.220Z,7.15
2023-05-19T18:09:00.970Z,6.60
2023-05-19T18:11:28.269Z,6.90
2023-05-19T18:13:55.304Z,7.28
2023-05-19T18:16:22.324Z,7.95
2023-05-19T18:18:50.624Z,7.20
2023-05-19T18:21:18.097Z,7.55
2023-05-19T18:23:45.780Z,8.50
2023-05-19T18:26:13.658Z,8.57
2023-05-19T18:28:41.769Z,8.25
2023-05-19T18:31:10.982Z,8.75
2023-05-19T18:33:37.922Z,10.10
2023-05-19T18:36:05.035Z,8.60
2023-05-19T18:38:31.982Z,9.82
2023-05-19T18:41:00.742Z,8.88
2023-05-19T18:43:30.120Z,8.45
2023-05-19T18:45:57.249Z,8.55
2023-05-19T18:48:25.647Z,7.75
2023-05-19T18:50:52.650Z,7.72
2023-05-19T18:53:22.664Z,8.18
2023-05-19T18:55:49.761Z,8.63
2023-05-19T18:58:20.352Z,8.45
2023-05-19T19:00:47.463Z,8.85
2023-05-19T19:03:15.028Z,8.98
2023-05-19T19:05:42.158Z,8.88
2023-05-19T19:08:09.152Z,8.50
2023-05-19T19:10:39.120Z,9.40
2023-05-19T19:13:06.616Z,8.43
2023-05-19T19:15:33.560Z,8.73
2023-05-19T19:18:00.609Z,7.85
2023-05-19T19:20:27.708Z,8.55
2023-05-19T19:22:54.742Z,8.10
2023-05-19T19:25:23.569Z,8.00
2023-05-19T19:27:51.227Z,8.23
2023-05-19T19:30:18.401Z,8.00
2023-05-19T19:32:45.749Z,7.93
2023-05-19T19:35:12.806Z,7.93
2023-05-19T19:37:39.739Z,8.25
2023-05-19T19:40:07.248Z,8.57
2023-05-19T19:42:34.350Z,8.07
2023-05-19T19:45:01.358Z,7.88
2023-05-19T19:47:28.353Z,8.02
2023-05-19T19:49:55.983Z,7.72
2023-05-19T19:52:22.953Z,9.57
2023-05-19T19:54:49.890Z,9.05
2023-05-19T19:57:17.764Z,9.25
2023-05-19T19:59:44.885Z,9.85
2023-05-19T20:02:11.915Z,8.88
2023-05-19T20:04:39.093Z,9.30
2023-05-19T20:07:06.682Z,9.05
2023-05-19T20:09:33.613Z,9.80
2023-05-19T20:12:00.877Z,8.98
2023-05-19T20:14:27.821Z,9.23
2023-05-19T20:16:54.822Z,9.60
2023-05-19T20:19:27.762Z,9.00
2023-05-19T20:21:54.890Z,8.98
2023-05-19T20:24:21.871Z,8.10
2023-05-19T20:26:48.813Z,8.95
2023-05-19T20:29:15.985Z,8.10
2023-05-19T20:31:42.984Z,8.02
2023-05-19T20:34:09.942Z,9.10
2023-05-19T20:36:36.928Z,8.15
2023-05-19T20:39:04.001Z,9.23
2023-05-19T20:41:31.594Z,8.80
2023-05-19T20:43:58.624Z,9.80
2023-05-19T20:46:25.703Z,9.13
2023-05-19T20:48:52.664Z,9.32
2023-05-19T20:51:19.731Z,8.57
2023-05-19T20:53:46.648Z,10.05
2023-05-19T20:56:14.035Z,8.65
2023-05-19T20:58:41.155Z,9.18
2023-05-19T21:01:09.240Z,9.05
2023-05-19T21:03:36.490Z,7.63
2023-05-19T21:06:03.601Z,7.53
2023-05-19T21:08:30.593Z,8.20
2023-05-19T21:10:57.583Z,8.02
2023-05-19T21:13:24.591Z,8.13
2023-05-19T21:15:51.556Z,8.02
2023-05-19T21:18:18.490Z,6.25
2023-05-19T21:20:45.490Z,6.85
2023-05-19T21:23:12.470Z,7.18
2023-05-19T21:25:39.979Z,6.78
2023-05-19T21:28:06.946Z,6.63
2023-05-19T21:30:34.072Z,6.25
2023-05-19T21:33:01.214Z,6.45
2023-05-19T21:35:28.210Z,6.72
2023-05-19T21:37:55.780Z,7.90
2023-05-19T21:40:22.894Z,6.68
2023-05-19T21:42:49.896Z,6.50
2023-05-19T21:45:16.860Z,6.68
2023-05-19T21:47:43.827Z,7.07
2023-05-19T21:50:11.099Z,5.78
2023-05-19T21:52:38.616Z,6.13
2023-05-19T21:55:06.212Z,6.47
2023-05-19T21:57:33.229Z,6.45
2023-05-19T22:00:00.184Z,4.68
2023-05-19T22:02:27.323Z,5.20
2023-05-19T22:04:54.300Z,4.93
2023-05-19T22:07:26.798Z,4.43
2023-05-19T22:09:54.140Z,4.93
2023-05-19T22:12:21.238Z,5.13
2023-05-19T22:14:48.208Z,4.90
2023-05-19T22:17:15.452Z,4.85
2023-05-19T22:19:42.374Z,5.03
2023-05-19T22:22:14.232Z,5.00
2023-05-19T22:24:42.711Z,5.43
2023-05-19T22:27:09.783Z,4.47
2023-05-19T22:29:38.631Z,4.60
2023-05-19T22:32:09.208Z,4.35
2023-05-19T22:34:36.278Z,5.03
2023-05-19T22:37:03.328Z,4.53
2023-05-19T22:39:30.298Z,4.97
2023-05-19T22:41:57.234Z,5.35
2023-05-19T22:44:24.202Z,4.47
2023-05-19T22:46:51.156Z,4.65
2023-05-19T22:49:18.113Z,4.82
2023-05-19T22:51:45.105Z,4.43
2023-05-19T22:54:12.082Z,5.20
2023-05-19T22:56:39.053Z,4.72
2023-05-19T22:59:06.218Z,4.15
2023-05-19T23:01:33.202Z,5.38
2023-05-19T23:04:00.286Z,5.22
2023-05-19T23:06:27.266Z,4.53
2023-05-19T23:09:05.351Z,4.78
2023-05-19T23:11:32.297Z,5.28
2023-05-19T23:13:59.349Z,5.30
2023-05-19T23:16:26.422Z,5.05
2023-05-19T23:18:53.494Z,5.03
2023-05-19T23:21:20.539Z,4.80
2023-05-19T23:23:47.575Z,4.57
2023-05-19T23:26:14.507Z,4.05
2023-05-19T23:28:44.889Z,4.82
2023-05-19T23:31:11.848Z,4.22
2023-05-19T23:33:38.956Z,5.03
2023-05-19T23:36:10.589Z,4.57
2023-05-19T23:38:37.852Z,4.85
2023-05-19T23:41:05.221Z,4.72
2023-05-19T23:43:35.500Z,5.72
2023-05-19T23:46:02.594Z,4.70
2023-05-19T23:48:30.048Z,5.05
2023-05-19T23:50:58.190Z,5.40
2023-05-19T23:53:25.336Z,4.40
2023-05-19T23:55:52.531Z,5.05
2023-05-19T23:58:19.535Z,5.22
